createdAt,value
2019-01-02T00:02:09.425Z,73.16
2019-01-02T00:04:35.415Z,73.10
2019-01-02T00:07:01.463Z,73.35
2019-01-02T00:09:27.463Z,73.21
2019-01-02T00:11:55.427Z,73.93
2019-01-02T00:14:21.414Z,74.28
2019-01-02T00:16:49.401Z,74.26
2019-01-02T00:19:15.405Z,74.40
2019-01-02T00:21:43.343Z,74.02
2019-01-02T00:24:09.401Z,74.14
2019-01-02T00:26:37.349Z,74.22
2019-01-02T00:29:03.379Z,73.71
2019-01-02T00:31:31.309Z,72.88
2019-01-02T00:33:57.349Z,72.98
2019-01-02T00:36:23.351Z,73.32
2019-01-02T00:38:49.383Z,72.78
2019-01-02T00:41:17.386Z,72.67
2019-01-02T00:43:43.388Z,72.36
2019-01-02T00:46:11.318Z,72.62
2019-01-02T00:48:37.307Z,73.94
2019-01-02T00:51:44.965Z,73.57
2019-01-02T00:54:11.325Z,72.76
2019-01-02T00:56:37.361Z,72.42
2019-01-02T00:59:05.301Z,72.11
2019-01-02T01:01:31.329Z,72.34
2019-01-02T01:03:59.360Z,73.05
2019-01-02T01:06:25.396Z,73.18
2019-01-02T01:08:53.408Z,72.69
2019-01-02T01:11:19.438Z,72.76
2019-01-02T01:13:45.421Z,73.20
2019-01-02T01:16:11.467Z,72.75
2019-01-02T01:18:37.457Z,72.22
2019-01-02T01:21:03.468Z,72.34
2019-01-02T01:23:29.500Z,72.81
2019-01-02T01:25:55.495Z,72.76
2019-01-02T01:28:23.466Z,72.23
2019-01-02T01:30:49.457Z,72.18
2019-01-02T01:33:17.412Z,72.11
2019-01-02T01:35:43.420Z,71.94
2019-01-02T01:38:09.450Z,71.60
2019-01-02T01:40:37.404Z,71.59
2019-01-02T01:43:03.451Z,71.98
2019-01-02T01:45:31.412Z,71.87
2019-01-02T01:47:57.411Z,71.72
2019-01-02T01:50:23.457Z,71.90
2019-01-02T01:52:49.446Z,72.37
2019-01-02T01:55:35.370Z,72.57
2019-01-02T01:58:01.408Z,72.27
2019-01-02T02:00:27.409Z,71.76
2019-01-02T02:02:53.442Z,71.17
2019-01-02T02:05:21.424Z,71.08
2019-01-02T02:07:47.438Z,71.24
2019-01-02T02:10:15.393Z,71.48
2019-01-02T02:12:41.417Z,71.55
2019-01-02T02:18:21.009Z,71.74
2019-01-02T02:20:48.969Z,71.23
2019-01-02T02:23:15.003Z,70.92
2019-01-02T02:25:42.943Z,70.72
2019-01-02T02:28:09.004Z,70.76
2019-01-02T02:30:35.057Z,70.79
2019-01-02T02:33:01.089Z,70.92
2019-01-02T02:35:27.082Z,71.22
2019-01-02T02:37:55.048Z,70.82
2019-01-02T02:40:21.050Z,70.68
2019-01-02T02:42:47.077Z,70.80
2019-01-02T02:45:15.006Z,70.37
2019-01-02T02:47:42.968Z,70.90
2019-01-02T02:53:11.396Z,70.14
2019-01-02T02:55:39.323Z,70.15
2019-01-02T02:58:07.331Z,69.99
2019-01-02T03:00:33.344Z,69.36
2019-01-02T03:03:01.278Z,69.44
2019-01-02T03:05:27.308Z,68.83
2019-01-02T03:07:53.305Z,69.46
2019-01-02T03:10:21.266Z,69.58
2019-01-02T03:12:49.197Z,69.29
2019-01-02T03:15:17.268Z,69.24
2019-01-02T03:17:43.255Z,68.59
2019-01-02T03:20:50.924Z,68.53
2019-01-02T03:23:16.956Z,68.49
2019-01-02T03:25:44.910Z,68.13
2019-01-02T03:28:12.831Z,67.59
2019-01-02T03:30:38.921Z,67.26
2019-01-02T03:33:06.846Z,67.55
2019-01-02T03:35:32.877Z,67.74
2019-01-02T03:37:58.878Z,67.72
2019-01-02T03:40:24.929Z,67.72
2019-01-02T03:43:10.833Z,67.82
2019-01-02T03:45:36.903Z,67.32
2019-01-02T03:48:02.905Z,67.01
2019-01-02T03:50:28.924Z,67.39
2019-01-02T03:52:54.913Z,67.53
2019-01-02T03:55:20.961Z,67.09
2019-01-02T03:58:06.827Z,66.83
2019-01-02T04:00:32.919Z,66.12
2019-01-02T04:02:58.917Z,67.07
2019-01-02T04:05:24.903Z,66.35
2019-01-02T04:08:32.568Z,67.00
2019-01-02T04:10:58.666Z,66.96
2019-01-02T04:13:24.668Z,66.53
2019-01-02T04:15:50.661Z,66.68
2019-01-02T04:18:16.693Z,66.16
2019-01-02T04:20:42.689Z,66.35
2019-01-02T04:23:08.731Z,66.30
2019-01-02T04:25:34.710Z,66.22
2019-01-02T04:28:00.738Z,65.79
2019-01-02T04:30:26.736Z,65.59
2019-01-02T04:32:52.774Z,64.97
2019-01-02T04:35:18.759Z,65.01
2019-01-02T04:37:44.789Z,65.08
2019-01-02T04:40:52.394Z,65.17
2019-01-02T04:43:18.463Z,64.74
2019-01-02T04:45:44.463Z,64.62
2019-01-02T04:48:10.503Z,64.73
2019-01-02T04:50:36.495Z,64.10
2019-01-02T04:53:02.525Z,63.92
2019-01-02T04:55:28.511Z,63.78
2019-01-02T04:57:54.577Z,64.09
2019-01-02T05:00:20.561Z,64.41
2019-01-02T05:02:46.609Z,64.22
2019-01-02T05:05:12.610Z,64.48
2019-01-02T05:07:38.636Z,64.21
2019-01-02T05:10:46.304Z,65.16
2019-01-02T05:13:12.330Z,65.54
2019-01-02T05:15:38.360Z,65.12
2019-01-02T05:18:04.350Z,65.50
2019-01-02T05:20:30.389Z,65.63
2019-01-02T05:22:56.383Z,65.62
2019-01-02T05:25:22.420Z,65.90
2019-01-02T05:27:48.406Z,66.29
2019-01-02T05:30:34.304Z,66.29
2019-01-02T05:33:00.341Z,66.09
2019-01-02T05:35:26.374Z,66.21
2019-01-02T05:37:52.373Z,66.22
2019-01-02T05:40:18.417Z,66.49
2019-01-02T05:42:44.420Z,66.69
2019-01-02T05:45:10.447Z,66.83
2019-01-02T05:47:36.453Z,67.13
2019-01-02T05:50:44.099Z,66.67
2019-01-02T05:56:02.135Z,66.97
2019-01-02T05:58:28.153Z,66.66
2019-01-02T06:00:54.185Z,66.71
2019-01-02T06:03:20.192Z,66.83
2019-01-02T06:05:46.214Z,67.23
2019-01-02T06:08:12.215Z,66.62
2019-01-02T06:10:38.251Z,66.71
2019-01-02T06:13:04.269Z,67.02
2019-01-02T06:15:30.277Z,67.80
2019-01-02T06:17:56.300Z,67.65
2019-01-02T06:20:22.284Z,67.87
2019-01-02T06:22:48.327Z,67.42
2019-01-02T06:25:34.203Z,67.52
2019-01-02T06:28:00.263Z,68.17
2019-01-02T06:30:26.258Z,68.38
2019-01-02T06:32:52.395Z,67.55
2019-01-02T06:35:18.426Z,67.57
2019-01-02T06:37:44.422Z,68.02
2019-01-02T06:40:10.452Z,68.29
2019-01-02T06:42:36.462Z,67.96
2019-01-02T06:45:44.120Z,67.58
2019-01-02T06:48:10.165Z,68.10
2019-01-02T06:50:36.195Z,67.69
2019-01-02T06:53:02.169Z,68.04
2019-01-02T06:55:28.202Z,67.58
2019-01-02T06:57:54.200Z,67.61
2019-01-02T07:01:01.840Z,68.02
2019-01-02T07:03:27.893Z,67.69
2019-01-02T07:05:53.932Z,68.50
2019-01-02T07:08:19.940Z,67.96
2019-01-02T07:10:45.973Z,68.07
2019-01-02T07:13:12.001Z,68.19
2019-01-02T07:15:37.995Z,68.12
2019-01-02T07:18:04.029Z,68.10
2019-01-02T07:20:30.017Z,67.51
2019-01-02T07:22:56.049Z,67.38
2019-01-02T07:25:22.053Z,67.71
2019-01-02T07:27:48.068Z,67.36
2019-01-02T07:30:55.713Z,66.47
2019-01-02T07:55:05.907Z,65.55
2019-01-02T08:01:12.587Z,65.11
2019-01-02T08:04:18.420Z,65.81
2019-01-02T08:07:24.231Z,64.83
2019-01-02T08:13:31.044Z,65.09
2019-01-02T08:16:38.758Z,64.08
2019-01-02T08:19:44.545Z,64.34
2019-01-02T08:22:52.209Z,63.54
2019-01-02T08:25:57.955Z,63.46
2019-01-02T08:29:03.734Z,62.52
2019-01-02T08:35:23.671Z,62.88
2019-01-02T08:38:31.357Z,62.32
2019-01-02T08:56:54.315Z,60.66
2019-01-02T09:09:01.867Z,58.79
2019-01-02T09:21:09.476Z,59.56
2019-01-02T09:24:15.298Z,58.98
2019-01-02T09:27:21.132Z,59.47
2019-01-02T09:30:26.969Z,58.59
2019-01-02T09:36:33.022Z,58.49
2019-01-02T09:39:38.850Z,58.04
2019-01-02T09:42:46.561Z,58.13
2019-01-02T09:45:52.307Z,58.49
2019-01-02T09:48:59.996Z,57.56
2019-01-02T09:52:05.751Z,57.85
2019-01-02T09:55:11.500Z,57.34
2019-01-02T09:58:17.362Z,57.41
2019-01-02T10:01:25.027Z,56.71
2019-01-02T10:04:30.813Z,56.41
2019-01-02T10:10:49.793Z,55.42
2019-01-02T10:13:55.628Z,55.88
2019-01-02T10:17:01.413Z,55.63
2019-01-02T10:20:07.156Z,55.45
2019-01-02T10:23:14.850Z,55.49
2019-01-02T10:26:20.576Z,55.17
2019-01-02T10:29:28.268Z,55.73
2019-01-02T10:32:34.070Z,55.50
2019-01-02T10:35:39.888Z,55.23
2019-01-02T10:38:47.582Z,55.31
2019-01-02T10:41:53.314Z,54.69
2019-01-02T10:44:59.072Z,55.29
2019-01-02T10:48:04.948Z,55.01
2019-01-02T10:51:12.628Z,54.63
2019-01-02T10:57:06.413Z,54.24
2019-01-02T11:03:13.078Z,54.13
2019-01-02T11:06:18.906Z,54.41
2019-01-02T11:09:24.735Z,54.16
2019-01-02T11:12:32.431Z,53.68
2019-01-02T11:18:51.747Z,53.13
2019-01-02T11:21:57.543Z,52.56
2019-01-02T11:25:03.351Z,52.77
2019-01-02T11:28:09.116Z,51.75
2019-01-02T11:34:15.517Z,52.21
2019-01-02T11:37:21.307Z,51.97
2019-01-02T11:40:27.092Z,50.97
2019-01-02T11:43:32.949Z,51.19
2019-01-02T11:45:58.981Z,50.97
2019-01-02T11:48:24.961Z,50.01
2019-01-02T11:51:10.844Z,51.17
2019-01-02T11:53:36.892Z,50.79
2019-01-02T11:56:02.929Z,49.71
2019-01-02T11:58:29.053Z,50.22
2019-01-02T12:00:55.038Z,50.79
2019-01-02T12:03:21.079Z,50.59
2019-01-02T12:05:47.139Z,48.33
2019-01-02T12:08:13.192Z,47.58
2019-01-02T12:10:39.233Z,48.38
2019-01-02T12:13:05.234Z,49.15
2019-01-02T12:15:31.258Z,48.87
2019-01-02T12:17:57.286Z,49.57
2019-01-02T12:20:23.280Z,50.24
2019-01-02T12:22:49.347Z,50.12
2019-01-02T12:25:15.373Z,49.87
2019-01-02T12:27:41.374Z,49.40
2019-01-02T12:30:49.040Z,48.86
2019-01-02T12:33:15.122Z,49.45
2019-01-02T12:35:41.138Z,49.97
2019-01-02T12:38:07.160Z,49.72
2019-01-02T12:40:33.203Z,49.58
2019-01-02T12:42:59.204Z,49.41
2019-01-02T12:45:25.345Z,49.66
2019-01-02T12:47:51.359Z,49.76
2019-01-02T12:50:17.388Z,49.78
2019-01-02T12:52:43.411Z,50.06
2019-01-02T12:55:09.425Z,49.78
2019-01-02T12:57:35.458Z,49.91
2019-01-02T13:06:42.409Z,49.07
2019-01-02T13:15:49.827Z,49.53
2019-01-02T13:18:57.531Z,48.14
2019-01-02T13:22:04.236Z,48.96
2019-01-02T13:25:12.088Z,47.79
2019-01-02T13:31:31.629Z,48.59
2019-01-02T13:34:37.610Z,48.05
2019-01-02T13:37:44.618Z,48.01
2019-01-02T13:40:50.516Z,47.58
2019-01-02T13:43:56.302Z,47.57
2019-01-02T13:47:02.096Z,48.07
2019-01-02T13:50:07.844Z,47.83
2019-01-02T13:52:33.889Z,47.58
2019-01-02T13:55:41.550Z,46.89
2019-01-02T13:58:07.576Z,47.08
2019-01-02T14:00:33.646Z,47.46
2019-01-02T14:02:59.644Z,46.65
2019-01-02T14:05:25.774Z,47.71
2019-01-02T14:07:59.488Z,47.24
2019-01-02T14:10:25.524Z,47.63
2019-01-02T14:12:51.525Z,47.79
2019-01-02T14:15:17.563Z,47.17
2019-01-02T14:17:43.606Z,48.41
2019-01-02T14:20:09.615Z,47.84
2019-01-02T14:22:35.661Z,48.21
2019-01-02T14:25:01.665Z,48.28
2019-01-02T14:27:27.726Z,48.01
2019-01-02T14:29:53.719Z,48.32
2019-01-02T14:32:19.733Z,48.30
2019-01-02T14:34:45.724Z,48.38
2019-01-02T14:37:11.753Z,48.18
2019-01-02T14:39:37.757Z,48.32
2019-01-02T14:42:03.813Z,48.97
2019-01-02T14:44:29.832Z,49.01
2019-01-02T14:46:55.865Z,49.12
2019-01-02T14:49:21.902Z,48.47
2019-01-02T14:54:20.105Z,48.38
2019-01-02T14:56:46.112Z,49.28
2019-01-02T14:59:12.116Z,48.51
2019-01-02T15:01:38.200Z,48.30
2019-01-02T15:04:04.229Z,48.58
2019-01-02T15:06:30.244Z,48.79
2019-01-02T15:08:56.282Z,48.56
2019-01-02T15:11:22.290Z,49.15
2019-01-02T15:13:48.332Z,49.25
2019-01-02T15:16:14.338Z,49.01
2019-01-02T15:18:40.362Z,49.39
2019-01-02T15:21:06.369Z,49.06
2019-01-02T15:23:32.390Z,50.25
2019-01-02T15:26:18.276Z,48.89
2019-01-02T15:28:44.359Z,49.88
2019-01-02T15:31:10.361Z,50.23
2019-01-02T15:33:36.422Z,50.34
2019-01-02T15:36:02.426Z,49.73
2019-01-02T15:38:28.454Z,49.79
2019-01-02T15:40:54.519Z,49.29
2019-01-02T15:43:20.508Z,49.67
2019-01-02T15:45:46.529Z,49.42
2019-01-02T15:48:12.533Z,47.75
2019-01-02T15:50:38.551Z,48.70
2019-01-02T15:53:04.561Z,49.28
2019-01-02T15:55:30.601Z,49.51
2019-01-02T15:57:56.594Z,48.48
2019-01-02T16:02:54.555Z,49.00
2019-01-02T16:05:20.566Z,48.28
2019-01-02T16:07:46.591Z,48.98
2019-01-02T16:10:12.614Z,49.69
2019-01-02T16:12:38.652Z,49.15
2019-01-02T16:18:17.985Z,48.26
2019-01-02T16:21:03.981Z,49.17
2019-01-02T16:23:30.020Z,49.77
2019-01-02T16:25:56.055Z,49.63
2019-01-02T16:28:22.108Z,49.67
2019-01-02T16:30:48.089Z,49.66
2019-01-02T16:33:14.130Z,49.26
2019-01-02T16:35:40.127Z,49.99
2019-01-02T16:38:06.152Z,49.72
2019-01-02T16:40:32.156Z,49.69
2019-01-02T16:42:58.192Z,50.42
2019-01-02T16:45:24.192Z,50.42
2019-01-02T16:47:50.231Z,50.11
2019-01-02T16:50:16.264Z,50.30
2019-01-02T16:52:42.271Z,50.64
2019-01-02T16:55:08.298Z,50.59
2019-01-02T16:57:34.288Z,49.93
2019-01-02T17:00:00.333Z,50.52
2019-01-02T17:02:26.366Z,50.79
2019-01-02T17:04:52.400Z,51.15
2019-01-02T17:07:18.390Z,50.81
2019-01-02T17:09:44.428Z,50.83
2019-01-02T17:12:10.411Z,50.28
2019-01-02T17:14:36.442Z,51.24
2019-01-02T17:17:02.482Z,50.81
2019-01-02T17:19:28.479Z,50.86
2019-01-02T17:21:54.541Z,49.94
2019-01-02T17:24:20.625Z,49.52
2019-01-02T17:26:46.616Z,49.85
2019-01-02T17:29:12.625Z,48.85
2019-01-02T17:31:38.653Z,49.85
2019-01-02T17:34:04.657Z,48.81
2019-01-02T17:36:30.693Z,49.28
2019-01-02T17:38:56.692Z,49.31
2019-01-02T17:41:22.733Z,48.79
2019-01-02T17:43:48.721Z,48.96
2019-01-02T17:46:14.743Z,49.52
2019-01-02T17:51:26.387Z,50.27
2019-01-02T17:53:52.379Z,49.68
2019-01-02T17:56:18.410Z,50.07
2019-01-02T17:58:44.400Z,50.94
2019-01-02T18:01:10.442Z,50.11
2019-01-02T18:03:36.468Z,50.24
2019-01-02T18:06:02.513Z,50.06
2019-01-02T18:08:28.518Z,50.77
2019-01-02T18:10:54.560Z,50.29
2019-01-02T18:13:20.590Z,50.07
2019-01-02T18:15:46.619Z,50.85
2019-01-02T18:18:32.571Z,51.14
2019-01-02T18:20:58.630Z,51.48
2019-01-02T18:23:24.662Z,50.90
2019-01-02T18:25:50.673Z,51.96
2019-01-02T18:28:16.706Z,51.48
2019-01-02T18:30:42.723Z,51.75
2019-01-02T18:33:08.749Z,52.01
2019-01-02T18:35:34.741Z,51.81
2019-01-02T18:38:00.810Z,51.99
2019-01-02T18:40:26.795Z,52.59
2019-01-02T18:42:52.793Z,52.57
2019-01-02T18:45:18.823Z,52.60
2019-01-02T18:47:44.827Z,52.45
2019-01-02T18:50:10.869Z,51.93
2019-01-02T18:52:36.856Z,52.66
2019-01-02T18:55:44.523Z,51.87
2019-01-02T18:58:24.420Z,52.10
2019-01-02T19:01:04.905Z,52.54
2019-01-02T19:03:30.944Z,52.41
2019-01-02T19:06:16.939Z,52.76
2019-01-02T19:08:42.961Z,52.34
2019-01-02T19:11:08.996Z,52.15
2019-01-02T19:13:34.989Z,52.13
2019-01-02T19:16:01.002Z,53.04
2019-01-02T19:18:27.028Z,52.45
2019-01-02T19:20:53.072Z,52.20
2019-01-02T19:23:19.084Z,52.27
2019-01-02T19:25:45.070Z,52.29
2019-01-02T19:28:11.108Z,53.60
2019-01-02T19:30:37.219Z,52.63
2019-01-02T19:33:03.235Z,52.94
2019-01-02T19:35:29.247Z,53.69
2019-01-02T19:37:55.282Z,53.92
2019-01-02T19:40:21.283Z,53.73
2019-01-02T19:42:47.329Z,53.76
2019-01-02T19:45:13.369Z,53.62
2019-01-02T19:47:39.353Z,53.38
2019-01-02T19:50:47.018Z,53.83
2019-01-02T19:53:13.051Z,53.88
2019-01-02T19:55:39.081Z,53.63
2019-01-02T19:58:05.077Z,54.10
2019-01-02T20:00:31.124Z,54.00
2019-01-02T20:02:57.161Z,54.28
2019-01-02T20:05:23.190Z,53.96
2019-01-02T20:07:49.182Z,55.18
2019-01-02T20:10:15.217Z,54.64
2019-01-02T20:12:41.197Z,54.61
2019-01-02T20:15:48.861Z,54.80
2019-01-02T20:18:14.863Z,54.55
2019-01-02T20:20:40.867Z,54.62
2019-01-02T20:23:06.914Z,54.22
2019-01-02T20:25:32.998Z,55.37
2019-01-02T20:27:58.995Z,55.00
2019-01-02T20:30:24.993Z,54.90
2019-01-02T20:32:51.045Z,55.14
2019-01-02T20:35:17.043Z,54.62
2019-01-02T20:37:43.075Z,54.56
2019-01-02T20:40:09.081Z,55.03
2019-01-02T20:42:35.138Z,55.09
2019-01-02T20:45:01.201Z,55.21
2019-01-02T20:47:27.180Z,54.88
2019-01-02T20:49:53.212Z,54.36
2019-01-02T20:52:19.240Z,54.53
2019-01-02T20:54:45.263Z,54.25
2019-01-02T20:57:11.306Z,54.21
2019-01-02T20:59:37.319Z,54.39
2019-01-02T21:02:03.356Z,54.38
2019-01-02T21:04:29.396Z,54.42
2019-01-02T21:07:15.403Z,55.08
2019-01-02T21:09:41.428Z,54.65
2019-01-02T21:12:07.450Z,55.24
2019-01-02T21:14:33.492Z,54.81
2019-01-02T21:16:59.527Z,55.22
2019-01-02T21:19:25.591Z,55.99
2019-01-02T21:21:51.578Z,55.64
2019-01-02T21:24:17.600Z,55.25
2019-01-02T21:26:43.649Z,55.41
2019-01-02T21:29:09.691Z,55.42
2019-01-02T21:31:35.696Z,55.32
2019-01-02T21:34:02.652Z,55.64
2019-01-02T21:36:29.683Z,55.26
2019-01-02T21:38:55.769Z,55.19
2019-01-02T21:41:21.759Z,55.19
2019-01-02T21:43:47.813Z,55.21
2019-01-02T21:46:13.856Z,55.27
2019-01-02T21:48:41.383Z,55.51
2019-01-02T21:51:07.862Z,55.22
2019-01-02T21:53:33.888Z,55.33
2019-01-02T21:55:59.921Z,55.73
2019-01-02T21:58:26.390Z,55.43
2019-01-02T22:00:53.904Z,55.51
2019-01-02T22:03:19.880Z,55.70
2019-01-02T22:05:45.939Z,55.42
2019-01-02T22:08:11.924Z,55.45
2019-01-02T22:10:37.970Z,55.33
2019-01-02T22:13:03.968Z,55.29
2019-01-02T22:15:29.964Z,55.00
2019-01-02T22:17:55.994Z,55.72
2019-01-02T22:20:22.000Z,55.68
2019-01-02T22:22:48.054Z,55.52
2019-01-02T22:25:14.115Z,56.05
2019-01-02T22:27:40.158Z,55.67
2019-01-02T22:33:19.415Z,55.93
2019-01-02T22:35:45.380Z,55.96
2019-01-02T22:38:11.426Z,56.48
2019-01-02T22:40:37.413Z,56.47
2019-01-02T22:43:03.475Z,56.37
2019-01-02T22:45:29.475Z,56.45
2019-01-02T22:47:55.493Z,56.17
2019-01-02T22:50:21.521Z,56.28
2019-01-02T22:52:47.511Z,56.13
2019-01-02T22:55:13.568Z,56.11
2019-01-02T22:57:39.555Z,56.01
2019-01-02T23:00:47.221Z,55.73
2019-01-02T23:06:20.549Z,56.78
2019-01-02T23:09:06.445Z,56.88
2019-01-02T23:11:52.376Z,56.72
2019-01-02T23:14:38.277Z,56.64
2019-01-02T23:17:24.213Z,56.55
2019-01-02T23:20:10.074Z,57.01
2019-01-02T23:22:55.996Z,57.20
2019-01-02T23:25:41.881Z,56.12
2019-01-02T23:28:27.816Z,56.40
2019-01-02T23:31:13.748Z,56.53
2019-01-02T23:33:59.642Z,56.75
2019-01-02T23:44:31.125Z,56.04
2019-01-02T23:47:17.012Z,55.75
2019-01-02T23:50:02.929Z,56.19
2019-01-02T23:55:26.320Z,56.80
2019-01-02T23:58:12.258Z,56.27
